Terminal Aerodrome Forecast
Issued by NWS Omaha/Valley, NE

Home | Current Version | Previous Version | Graphics & Text | Print | Product List | Glossary On
Versions: 1 2 3 4 5 6 7 8 9 10 11 12 13 14 15 16 17 18 19 20 21 22 23 24 25 26 27 28 29 30 31 32 33 34 35 36 37 38 39 40
000
FTUS43 KOAX 290524
TAFOFK
TAF
KOFK 290524Z 2906/3006 16006KT P6SM VCSH SCT030 BKN040
      TEMPO 2906/2908 VRB12G22KT 5SM -TSRA BKN025CB
     FM291000 28004KT 5SM BR OVC025
      TEMPO 2911/2915 29004KT 2SM BR OVC007
     FM291600 28004KT 5SM BR OVC030
     FM291800 33006KT P6SM BKN035=

USA.gov is the U.S. government's official web portal to all federal, state and local government web resources and services.